»·PEaware :: N9092T KABQ-KAMA

N9092T :: KABQ-KAMA

FLIGHT INFORMATION

Flight Status: Arrived
Operator: Privately registered:
United States
More flights under this callsign
Pilot: David B. (14064)
Aircraft: BEECH AIRCRAFT BONANZA
(BE36)
More flights by this aircraft type
Origin: KABQ Albuquerque Intl Sunport
United States
Destination: KAMA Amarillo Intl
United States
More flights between these airports :: More routes between these airports
Route: CYOTE V60 OTO V12 PNH
File this flight plan on PilotEdge
Remarks:
Altitude:
(Current/Filed)
11,500ft
Speed:
(Current/Filed)
140kts
Departed: 20-Aug-17 06:07 PM
Arrived: 20-Aug-17 07:48 PM
Distance/Time
Traveled:
240nm/1:41
Distance/Time
To Go:
Arrived

Flight Plot

Page will automatically refresh every two minutes.

Flight plan parsing failed; only flown route is shown


Map Options




Map Legend


Flown Route
Filed Route
Departure Airport
Arrival Airport
Navaid (VOR, NDB)
Fix

Horizontal Profiles

Position Reports

Time Latitude Longitude Heading Altitude Ground
Speed
20-Aug-17 17:49 35.048380 -106.608251 88 5359ft 0kts
20-Aug-17 17:50 35.048380 -106.608249 88 5359ft 0kts
20-Aug-17 17:51 35.048380 -106.608245 88 5359ft 0kts
20-Aug-17 17:52 35.048380 -106.608241 88 5359ft 0kts
20-Aug-17 17:53 35.048380 -106.608238 88 5359ft 0kts
20-Aug-17 17:54 35.048380 -106.608234 88 5359ft 0kts
20-Aug-17 17:55 35.048380 -106.608231 88 5359ft 0kts
20-Aug-17 17:56 35.048380 -106.608227 88 5359ft 0kts
20-Aug-17 17:57 35.048380 -106.608223 88 5359ft 0kts
20-Aug-17 17:58 35.048377 -106.608412 88 5359ft 2kts
20-Aug-17 17:59 35.048377 -106.608414 88 5359ft 0kts
20-Aug-17 18:00 35.048377 -106.608408 88 5359ft 0kts
20-Aug-17 18:01 35.048377 -106.608402 88 5359ft 0kts
20-Aug-17 18:02 35.047767 -106.608390 213 5359ft 7kts
20-Aug-17 18:03 35.047587 -106.609269 267 5359ft 6kts
20-Aug-17 18:04 35.046528 -106.610426 190 5359ft 12kts
20-Aug-17 18:05 35.046004 -106.612697 268 5359ft 5kts
20-Aug-17 18:06 35.045993 -106.615365 270 5359ft 8kts
20-Aug-17 18:07 35.046023 -106.618546 270 5359ft 9kts
20-Aug-17 18:08 35.046060 -106.620985 268 5359ft 3kts
20-Aug-17 18:09 35.045037 -106.621281 180 5359ft 0kts
20-Aug-17 18:10 35.045032 -106.621281 180 5359ft 0kts
20-Aug-17 18:11 35.044345 -106.617301 90 5359ft 52kts
20-Aug-17 18:12 35.044049 -106.589576 111 5789ft 92kts
20-Aug-17 18:13 35.028777 -106.559396 119 6480ft 106kts
20-Aug-17 18:14 35.016567 -106.529056 114 7337ft 98kts
20-Aug-17 18:15 35.005432 -106.497736 114 8168ft 101kts
20-Aug-17 18:16 34.994194 -106.464977 114 9011ft 107kts
20-Aug-17 18:17 34.982693 -106.431222 115 9796ft 109kts
20-Aug-17 18:18 34.970861 -106.396961 115 10475ft 110kts
20-Aug-17 18:19 34.974990 -106.358304 85 11063ft 116kts
20-Aug-17 18:20 34.980307 -106.318796 82 11543ft 127kts
20-Aug-17 18:21 34.990134 -106.271224 75 11510ft 156kts
20-Aug-17 18:22 35.002803 -106.219380 75 11501ft 161kts
20-Aug-17 18:23 35.015429 -106.166559 75 11502ft 162kts
20-Aug-17 18:24 35.028038 -106.113796 75 11500ft 162kts
20-Aug-17 18:25 35.040656 -106.060958 75 11499ft 162kts
20-Aug-17 18:26 35.053357 -106.007753 75 11503ft 162kts
20-Aug-17 18:27 35.065984 -105.954800 76 11505ft 162kts
20-Aug-17 18:28 35.072872 -105.900728 87 11527ft 160kts
20-Aug-17 18:29 35.076310 -105.846158 87 11528ft 161kts
20-Aug-17 18:30 35.079099 -105.791542 88 11530ft 161kts
20-Aug-17 18:31 35.081714 -105.736721 88 11536ft 161kts
20-Aug-17 18:32 35.084293 -105.682230 88 11559ft 160kts
20-Aug-17 18:33 35.086861 -105.626568 88 11441ft 165kts
20-Aug-17 18:34 35.089426 -105.570797 88 11442ft 163kts
20-Aug-17 18:35 35.091975 -105.515741 88 11444ft 162kts
20-Aug-17 18:36 35.094515 -105.461036 88 11447ft 162kts
20-Aug-17 18:37 35.097094 -105.405971 88 11519ft 157kts
20-Aug-17 18:38 35.099218 -105.352565 89 11580ft 159kts
20-Aug-17 18:39 35.101740 -105.298069 88 11582ft 161kts
20-Aug-17 18:40 35.104322 -105.243157 88 11584ft 162kts
20-Aug-17 18:41 35.106917 -105.188201 88 11580ft 162kts
20-Aug-17 18:42 35.109523 -105.133097 88 11581ft 162kts
20-Aug-17 18:43 35.111690 -105.087234 88 11584ft 162kts
20-Aug-17 18:44 35.114729 -105.023113 88 11581ft 162kts
20-Aug-17 18:45 35.117425 -104.967861 88 11549ft 164kts
20-Aug-17 18:46 35.120198 -104.912421 88 11551ft 163kts
20-Aug-17 18:47 35.122939 -104.857339 88 11556ft 162kts
20-Aug-17 18:48 35.125689 -104.802051 88 11552ft 163kts
20-Aug-17 18:49 35.128548 -104.746655 88 11516ft 165kts
20-Aug-17 18:50 35.131130 -104.700100 88 11510ft 164kts
20-Aug-17 18:51 35.134200 -104.644698 89 11511ft 163kts
20-Aug-17 18:52 35.136529 -104.589516 90 11516ft 163kts
20-Aug-17 18:53 35.138822 -104.534044 90 11511ft 163kts
20-Aug-17 18:54 35.141177 -104.478468 90 11481ft 164kts
20-Aug-17 18:55 35.143561 -104.422864 90 11482ft 163kts
20-Aug-17 18:56 35.145933 -104.367247 90 11485ft 163kts
20-Aug-17 18:57 35.148278 -104.311789 90 11480ft 163kts
20-Aug-17 18:58 35.150558 -104.255971 90 11451ft 165kts
20-Aug-17 18:59 35.152813 -104.199735 90 11451ft 165kts
20-Aug-17 19:00 35.155053 -104.143875 90 11453ft 164kts
20-Aug-17 19:01 35.157950 -104.087991 88 11462ft 164kts
20-Aug-17 19:02 35.160944 -104.032086 88 11433ft 166kts
20-Aug-17 19:03 35.163835 -103.975806 88 11427ft 166kts
20-Aug-17 19:04 35.166701 -103.919441 88 11427ft 166kts
20-Aug-17 19:05 35.169567 -103.863207 89 11427ft 165kts
20-Aug-17 19:06 35.172405 -103.807011 88 11415ft 166kts
20-Aug-17 19:07 35.175170 -103.750463 88 11413ft 166kts
20-Aug-17 19:08 35.177931 -103.694126 88 11412ft 166kts
20-Aug-17 19:09 35.180695 -103.637747 88 11413ft 166kts
20-Aug-17 19:10 35.183414 -103.581545 89 11412ft 165kts
20-Aug-17 19:11 35.185442 -103.525239 90 11412ft 166kts
20-Aug-17 19:12 35.187445 -103.468787 90 11412ft 166kts
20-Aug-17 19:13 35.189440 -103.412530 90 11412ft 166kts
20-Aug-17 19:14 35.190955 -103.369908 90 11412ft 166kts
20-Aug-17 19:15 35.192909 -103.313605 91 11421ft 165kts
20-Aug-17 19:16 35.194317 -103.257432 91 11420ft 165kts
20-Aug-17 19:17 35.195729 -103.201076 91 11417ft 165kts
20-Aug-17 19:18 35.197139 -103.144896 91 11419ft 165kts
20-Aug-17 19:19 35.198690 -103.088830 91 11432ft 164kts
20-Aug-17 19:20 35.200432 -103.032566 91 11435ft 165kts
20-Aug-17 19:21 35.202137 -102.974259 91 10924ft 179kts
20-Aug-17 19:22 35.203774 -102.913744 91 10495ft 172kts
20-Aug-17 19:23 35.205534 -102.854781 91 9968ft 170kts
20-Aug-17 19:24 35.207466 -102.797163 91 9467ft 168kts
20-Aug-17 19:25 35.209440 -102.739867 90 8963ft 169kts
20-Aug-17 19:26 35.210320 -102.681605 91 8472ft 173kts
20-Aug-17 19:27 35.211842 -102.622663 90 7974ft 174kts
20-Aug-17 19:28 35.213819 -102.563249 90 7518ft 172kts
20-Aug-17 19:29 35.216053 -102.507258 90 7494ft 158kts
20-Aug-17 19:30 35.218038 -102.450963 91 7052ft 171kts
20-Aug-17 19:31 35.219842 -102.392623 91 6610ft 168kts
20-Aug-17 19:32 35.221580 -102.336323 92 6392ft 163kts
20-Aug-17 19:33 35.223077 -102.281072 92 6192ft 162kts
20-Aug-17 19:34 35.216047 -102.227414 107 5994ft 158kts
20-Aug-17 19:35 35.206074 -102.175105 107 5798ft 158kts
20-Aug-17 19:36 35.196060 -102.122593 107 5598ft 157kts
20-Aug-17 19:37 35.186094 -102.070854 107 5510ft 154kts
20-Aug-17 19:38 35.176491 -102.020614 108 5510ft 152kts
20-Aug-17 19:39 35.165787 -101.971313 110 5509ft 148kts
20-Aug-17 19:40 35.156866 -101.928338 110 5490ft 116kts
20-Aug-17 19:41 35.160743 -101.890610 68 5505ft 117kts
20-Aug-17 19:42 35.180620 -101.858130 49 5503ft 120kts
20-Aug-17 19:43 35.203911 -101.828739 48 5501ft 120kts
20-Aug-17 19:44 35.227364 -101.799323 48 5467ft 123kts
20-Aug-17 19:45 35.250813 -101.771482 41 5530ft 101kts
20-Aug-17 19:46 35.272229 -101.750377 45 5778ft 99kts
20-Aug-17 19:47 35.282833 -101.721063 78 5934ft 101kts
20-Aug-17 19:48 35.279008 -101.687722 125 5746ft 103kts
20-Aug-17 19:49 35.257741 -101.667945 185 4982ft 99kts
20-Aug-17 19:50 35.237951 -101.691107 223 3870ft 92kts
20-Aug-17 19:51 35.223689 -101.709362 224 3611ft 42kts
20-Aug-17 19:52 35.218612 -101.715575 224 3611ft 14kts
20-Aug-17 19:53 35.216663 -101.714775 177 3611ft 5kts
20-Aug-17 19:54 35.214397 -101.717369 226 3611ft 16kts
20-Aug-17 19:55 35.212377 -101.719183 145 3611ft 4kts
20-Aug-17 19:56 35.211831 -101.718595 136 3611ft 0kts

Navigation Log

Ident Type
Flight plan parsing failed, navigation log unavailable